Pakse International Airport
VLPS : now visible

Airfield :











YOU CAN JOIN US ON...

 
LOGIN :

Register | Disclaimer

   EN    FR    IT 

 









Legend :    VFR   Marginal VFR   IFR   Intensive IFR   Very Intensive IFR
Visi :
Ceiling :
>= 8 km
>= 3000ft
5 to 8 km
1000 to 3000 ft
1500m to 5 km
500 to 1000 ft
800 to 1500m
200 to 500 ft
< 800m
< 200 ft
Symbols :   Thunderstorms  Fog  Heavy snow  Heavy precipitations  Wind > 20 kt






- Airport Elevation : 351 ft
- IATA code : PKZ


VLPS - Pakse International

CURRENT METAR :
  • 271000Z 27002KT 9999 BKN020 BKN040 27/25 Q1004 NOSIG

EXPIRED METARs :
  • 270900Z 27002KT 9999 BKN020 BKN040 28/25 Q1004 NOSIG
  • 270800Z 27002KT 9999 BKN020 BKN050 29/25 Q1004 NOSIG

TAF TAF VLPS
Valid from the 27 at 06:00 until the 28 at 06:00 UTC


270500Z 2706/2806 36006KT 9999 SCT016 BKN040 SCT100
VLVT FIR / Asia



MET'MAP, your aeronautical weather chart ! - Copyright ORBIFLY December 2007 - Disclaimer

ORBIFLY MET'MAP TEAM :

Programming & Development : Alexandra Zaïnal
Original concept : Baudouin d'Aumeries
Technical & hardware support : Manuel Goepfert
Assistance : Marc-Olivier Méhu




SOURCES & CREDITS :

   NOAA       Earth
Advisory